aviador You're here:

KNMM Decoded Metar

MERIDIAN in MS, USA
Report Time2017-06-25 00:56:00
UTC Time2017-06-25 02:03:24
Flight Rules Old
Wind350° at 04 kt
W.Decomp.*RWY 01: 3.7 kt HW 1.4 kt LCW
RWY 28: 1.4 kt HW 3.7 kt RCW
W.Rank350° ranks 3
Current wind is below 350° avg. (6.7)
Visibility9999 m
Phenomena:N/A
Clouds:N/A
Expected CloudBase > 2,000 ft AGL from Temp-Dew spread
CeilingNone
Temp27°C (ISA +13)
Dew Point22°C (74% RH)
Heat Index29.2°C
QNH1018 hPa
Density Alt1,955 ft
Elevation318 ft
Report Wrong Elevation
Raw Report
KNMM 250056Z AUTO 35004KT 10SM CLR 27/22 A3007 RMK AO2 SLP187
T02720217 $=

Extra information for KNMM:More info

Metar Taf Metar & Taf Last 4 Metars F.Rules Stats Wind Profile Meteogram Temp Stats Airport Information Weather charts Add Link Nearby VenuesMetar ALERT Operation Metar Decoded Social comments

AIRNAV info for KNMM